createdAt,value
2022-12-04T00:00:33.815Z,134.73
2022-12-04T00:03:21.223Z,125.90
2022-12-04T00:05:48.126Z,117.67
2022-12-04T00:08:15.465Z,132.20
2022-12-04T00:10:43.935Z,143.60
2022-12-04T00:13:11.696Z,139.80
2022-12-04T00:15:43.134Z,132.93
2022-12-04T00:18:10.365Z,134.00
2022-12-04T00:20:40.358Z,131.53
2022-12-04T00:23:07.602Z,135.33
2022-12-04T00:25:40.758Z,137.43
2022-12-04T00:28:09.062Z,125.07
2022-12-04T00:30:40.246Z,128.30
2022-12-04T00:33:07.431Z,138.83
2022-12-04T00:35:34.293Z,143.17
2022-12-04T00:38:01.620Z,136.43
2022-12-04T00:40:28.673Z,138.17
2022-12-04T00:42:55.972Z,130.30
2022-12-04T00:45:23.007Z,145.80
2022-12-04T00:47:50.154Z,143.20
2022-12-04T00:50:17.110Z,141.60
2022-12-04T00:52:44.322Z,133.43
2022-12-04T00:55:11.441Z,138.57
2022-12-04T00:57:38.686Z,138.20
2022-12-04T01:00:06.947Z,133.87
2022-12-04T01:02:34.276Z,145.13
2022-12-04T01:05:02.029Z,134.83
2022-12-04T01:07:29.286Z,136.87
2022-12-04T01:09:56.890Z,137.33
2022-12-04T01:12:24.307Z,146.93
2022-12-04T01:14:51.314Z,137.37
2022-12-04T01:17:18.736Z,130.73
2022-12-04T01:19:45.676Z,148.30
2022-12-04T01:22:12.929Z,146.43
2022-12-04T01:24:40.027Z,137.87
2022-12-04T01:27:07.153Z,155.40
2022-12-04T01:29:34.167Z,160.27
2022-12-04T01:32:01.494Z,157.23
2022-12-04T01:34:28.542Z,155.23
2022-12-04T01:36:55.787Z,148.90
2022-12-04T01:39:22.753Z,157.10
2022-12-04T01:41:50.111Z,155.70
2022-12-04T01:44:26.078Z,149.37
2022-12-04T01:47:01.000Z,144.37
2022-12-04T01:49:36.886Z,141.40
2022-12-04T01:52:19.196Z,141.87
2022-12-04T01:54:54.331Z,140.13
2022-12-04T01:57:24.900Z,141.70
2022-12-04T02:00:01.861Z,154.77
2022-12-04T02:02:37.345Z,147.20
2022-12-04T02:05:07.511Z,148.00
2022-12-04T02:07:36.010Z,163.17
2022-12-04T02:10:06.473Z,156.77
2022-12-04T02:13:14.269Z,142.13
2022-12-04T02:15:50.282Z,139.17
2022-12-04T02:18:28.883Z,152.23
2022-12-04T02:21:23.177Z,154.83
2022-12-04T02:23:56.431Z,150.33
2022-12-04T02:26:38.881Z,161.73
2022-12-04T02:29:24.474Z,149.97
2022-12-04T02:31:55.453Z,153.87
2022-12-04T02:34:41.765Z,140.63
2022-12-04T02:37:17.346Z,160.53
2022-12-04T02:39:55.193Z,158.20
2022-12-04T02:42:30.189Z,155.73
2022-12-04T02:45:01.871Z,148.93
2022-12-04T02:47:30.544Z,164.77
2022-12-04T02:50:01.618Z,163.73
2022-12-04T02:52:35.235Z,166.00
2022-12-04T02:55:11.491Z,169.40
2022-12-04T02:57:43.251Z,168.27
2022-12-04T03:00:11.225Z,176.30
2022-12-04T03:02:46.642Z,170.67
2022-12-04T03:05:18.550Z,183.23
2022-12-04T03:07:59.776Z,181.27
2022-12-04T03:10:38.706Z,201.37
2022-12-04T03:13:16.028Z,197.17
2022-12-04T03:15:52.495Z,193.60
2022-12-04T03:18:44.496Z,196.33
2022-12-04T03:21:16.390Z,191.93
2022-12-04T03:23:49.303Z,200.70
2022-12-04T03:26:40.617Z,210.70
2022-12-04T03:29:22.369Z,202.27
2022-12-04T03:32:16.113Z,188.70
2022-12-04T03:34:51.255Z,211.57
2022-12-04T03:37:24.492Z,204.37
2022-12-04T03:40:06.371Z,207.07
2022-12-04T03:42:58.355Z,206.30
2022-12-04T03:45:30.504Z,214.00
2022-12-04T03:48:07.483Z,209.57
2022-12-04T03:50:34.355Z,195.87
2022-12-04T03:53:20.818Z,197.67
2022-12-04T03:55:47.664Z,188.37
2022-12-04T03:58:22.058Z,195.40
2022-12-04T04:00:52.705Z,194.17
2022-12-04T04:03:28.513Z,189.27
2022-12-04T04:06:06.817Z,184.67
2022-12-04T04:08:37.665Z,188.00
2022-12-04T04:11:07.633Z,213.30
2022-12-04T04:13:59.634Z,192.47
2022-12-04T04:16:47.305Z,173.30
2022-12-04T04:19:44.586Z,170.03
2022-12-04T04:22:30.716Z,164.00
2022-12-04T04:25:10.114Z,165.07
2022-12-04T04:27:37.041Z,170.77
2022-12-04T04:30:06.562Z,172.50
2022-12-04T04:32:49.948Z,170.03
2022-12-04T04:35:49.331Z,165.63
2022-12-04T04:38:37.858Z,162.63
2022-12-04T04:41:28.902Z,166.97
2022-12-04T04:44:25.235Z,158.03
2022-12-04T04:46:58.552Z,153.07
2022-12-04T04:49:29.562Z,158.10
2022-12-04T04:51:58.135Z,169.67
2022-12-04T04:54:26.904Z,170.07
2022-12-04T04:56:54.030Z,167.53
2022-12-04T04:59:20.907Z,156.77
2022-12-04T05:01:48.336Z,157.03
2022-12-04T05:04:15.593Z,155.87
2022-12-04T05:06:42.850Z,164.00
2022-12-04T05:09:09.718Z,168.07
2022-12-04T05:11:36.912Z,164.07
2022-12-04T05:14:05.934Z,172.27
2022-12-04T05:16:33.323Z,148.17
2022-12-04T05:19:18.624Z,162.67
2022-12-04T05:21:45.873Z,153.83
2022-12-04T05:24:12.707Z,137.37
2022-12-04T05:26:40.070Z,151.00
2022-12-04T05:29:07.053Z,140.23
2022-12-04T05:31:34.323Z,152.33
2022-12-04T05:34:01.245Z,128.77
2022-12-04T05:36:28.502Z,145.20
2022-12-04T05:38:55.343Z,134.00
2022-12-04T05:41:23.048Z,141.10
2022-12-04T05:43:49.955Z,142.30
2022-12-04T05:46:17.159Z,126.30
2022-12-04T05:48:44.148Z,129.00
2022-12-04T05:51:11.803Z,130.63
2022-12-04T05:53:38.830Z,133.90
2022-12-04T05:56:07.563Z,128.73
2022-12-04T05:58:36.790Z,124.20
2022-12-04T06:01:18.681Z,132.17
2022-12-04T06:03:45.834Z,130.50
2022-12-04T06:06:21.969Z,131.40
2022-12-04T06:08:51.636Z,122.67
2022-12-04T06:11:24.740Z,144.97
2022-12-04T06:13:52.408Z,135.80
2022-12-04T06:16:25.382Z,131.90
2022-12-04T06:18:55.107Z,126.00
2022-12-04T06:21:24.068Z,130.43
2022-12-04T06:23:52.220Z,131.00
2022-12-04T06:26:19.788Z,145.40
2022-12-04T06:28:47.542Z,122.53
2022-12-04T06:31:19.097Z,154.23
2022-12-04T06:33:46.512Z,149.47
2022-12-04T06:36:16.932Z,156.33
2022-12-04T06:38:44.328Z,144.00
2022-12-04T06:41:14.279Z,138.50
2022-12-04T06:43:41.627Z,131.00
2022-12-04T06:46:12.320Z,142.50
2022-12-04T06:48:39.554Z,128.03
2022-12-04T06:51:12.921Z,139.17
2022-12-04T06:53:40.306Z,149.33
2022-12-04T06:56:10.326Z,125.87
2022-12-04T06:58:37.696Z,140.67
2022-12-04T07:01:10.237Z,145.30
2022-12-04T07:03:38.135Z,147.60
2022-12-04T07:06:13.265Z,158.70
2022-12-04T07:08:40.275Z,158.63
2022-12-04T07:11:07.689Z,144.73
2022-12-04T07:13:34.998Z,153.77
2022-12-04T07:16:04.360Z,139.37
2022-12-04T07:18:32.638Z,137.63
2022-12-04T07:21:00.215Z,134.50
2022-12-04T07:23:27.324Z,155.50
2022-12-04T07:25:54.518Z,155.10
2022-12-04T07:28:21.545Z,154.93
2022-12-04T07:30:48.728Z,144.30
2022-12-04T07:33:15.599Z,138.80
2022-12-04T07:35:42.740Z,140.57
2022-12-04T07:38:09.615Z,144.50
2022-12-04T07:40:38.031Z,128.17
2022-12-04T07:43:05.080Z,132.03
2022-12-04T07:45:32.312Z,137.70
2022-12-04T07:47:59.268Z,146.00
2022-12-04T07:50:26.573Z,147.37
2022-12-04T07:52:53.787Z,147.23
2022-12-04T07:55:23.297Z,130.93
2022-12-04T07:57:50.594Z,134.87
2022-12-04T08:00:18.237Z,139.47
2022-12-04T08:02:45.147Z,131.77
2022-12-04T08:05:12.238Z,123.70
2022-12-04T08:07:39.146Z,130.30
2022-12-04T08:10:07.030Z,123.13
2022-12-04T08:12:33.993Z,115.37
2022-12-04T08:15:01.473Z,108.73
2022-12-04T08:17:28.628Z,109.50
2022-12-04T08:19:56.029Z,116.57
2022-12-04T08:22:25.255Z,121.20
2022-12-04T08:24:52.754Z,115.03
2022-12-04T08:27:19.693Z,114.17
2022-12-04T08:29:46.828Z,106.33
2022-12-04T08:32:13.800Z,112.57
2022-12-04T08:34:40.951Z,107.13
2022-12-04T08:37:07.800Z,111.93
2022-12-04T08:39:35.149Z,117.33
2022-12-04T08:42:02.012Z,116.67
2022-12-04T08:44:29.129Z,99.10
2022-12-04T08:46:56.067Z,100.63
2022-12-04T08:49:23.189Z,99.00
2022-12-04T08:51:50.391Z,99.27
2022-12-04T08:54:17.541Z,100.40
2022-12-04T08:56:44.623Z,107.83
2022-12-04T08:59:13.371Z,101.63
2022-12-04T09:01:40.406Z,101.50
2022-12-04T09:04:07.685Z,99.07
2022-12-04T09:06:34.866Z,112.47
2022-12-04T09:09:02.224Z,105.20
2022-12-04T09:11:30.549Z,101.17
2022-12-04T09:13:57.777Z,103.80
2022-12-04T09:16:26.154Z,98.53
2022-12-04T09:18:54.281Z,90.97
2022-12-04T09:21:23.626Z,95.43
2022-12-04T09:23:51.576Z,86.30
2022-12-04T09:26:21.684Z,88.60
2022-12-04T09:28:50.014Z,98.57
2022-12-04T09:31:17.647Z,88.73
2022-12-04T09:33:44.977Z,89.97
2022-12-04T09:36:16.238Z,87.57
2022-12-04T09:38:45.726Z,92.70
2022-12-04T09:41:46.779Z,93.90
2022-12-04T09:44:40.313Z,83.73
2022-12-04T09:47:21.390Z,86.30
2022-12-04T09:50:24.146Z,82.63
2022-12-04T09:53:06.254Z,80.47
2022-12-04T09:55:39.026Z,84.90
2022-12-04T09:58:10.731Z,87.50
2022-12-04T10:00:42.651Z,87.07
2022-12-04T10:03:17.302Z,89.10
2022-12-04T10:06:03.462Z,98.50
2022-12-04T10:08:40.419Z,81.43
2022-12-04T10:11:32.026Z,85.43
2022-12-04T10:14:35.199Z,85.20
2022-12-04T10:17:52.829Z,80.77
2022-12-04T10:20:28.947Z,85.57
2022-12-04T10:23:19.448Z,84.90
2022-12-04T10:25:49.319Z,72.30
2022-12-04T10:28:41.330Z,74.03
2022-12-04T10:31:13.757Z,82.70
2022-12-04T10:33:58.729Z,79.77
2022-12-04T10:36:30.941Z,81.57
2022-12-04T10:39:15.391Z,77.83
2022-12-04T10:41:59.999Z,85.10
2022-12-04T10:44:27.555Z,71.80
2022-12-04T10:46:59.610Z,83.40
2022-12-04T10:49:35.579Z,85.80
2022-12-04T10:52:02.674Z,84.83
2022-12-04T10:54:43.404Z,77.73
2022-12-04T10:57:13.896Z,72.03
2022-12-04T10:59:53.434Z,81.50
2022-12-04T11:02:27.432Z,81.40
2022-12-04T11:05:00.889Z,85.17
2022-12-04T11:07:30.924Z,74.57
2022-12-04T11:10:03.320Z,85.17
2022-12-04T11:12:32.252Z,86.60
2022-12-04T11:15:04.137Z,91.07
2022-12-04T11:17:31.040Z,104.10
2022-12-04T11:20:04.768Z,95.47
2022-12-04T11:22:32.316Z,94.57
2022-12-04T11:25:00.116Z,109.23
2022-12-04T11:27:33.469Z,101.53
2022-12-04T11:30:13.384Z,120.87
2022-12-04T11:32:42.188Z,111.90
2022-12-04T11:35:23.518Z,113.77
2022-12-04T11:38:14.120Z,127.83
2022-12-04T11:40:53.728Z,131.37
2022-12-04T11:43:21.761Z,121.20
2022-12-04T11:46:03.549Z,120.33
2022-12-04T11:48:31.900Z,123.33
2022-12-04T11:51:14.205Z,138.10
2022-12-04T11:54:08.212Z,124.33
2022-12-04T11:56:41.041Z,137.93
2022-12-04T11:59:28.189Z,151.13
2022-12-04T12:02:16.314Z,138.80
2022-12-04T12:05:18.745Z,129.70
2022-12-04T12:08:03.985Z,120.50
2022-12-04T12:10:45.486Z,134.57
2022-12-04T12:13:34.042Z,121.87
2022-12-04T12:16:08.888Z,136.57
2022-12-04T12:18:56.977Z,149.27
2022-12-04T12:21:33.893Z,139.83
2022-12-04T12:24:22.862Z,148.50
2022-12-04T12:27:13.671Z,144.13
2022-12-04T12:29:56.102Z,148.93
2022-12-04T12:32:40.707Z,151.70
2022-12-04T12:35:54.407Z,159.43
2022-12-04T12:38:28.784Z,128.10
2022-12-04T12:41:02.016Z,138.07
2022-12-04T12:43:39.731Z,156.97
2022-12-04T12:46:14.868Z,192.80
2022-12-04T12:49:01.415Z,198.57
2022-12-04T12:51:45.132Z,159.93
2022-12-04T12:54:49.008Z,147.87
2022-12-04T12:57:29.465Z,145.40
2022-12-04T13:00:04.314Z,144.30
2022-12-04T13:02:58.485Z,137.90
2022-12-04T13:05:31.044Z,133.23
2022-12-04T13:07:58.249Z,136.03
2022-12-04T13:10:35.275Z,141.30
2022-12-04T13:13:07.771Z,138.17
2022-12-04T13:15:44.771Z,141.80
2022-12-04T13:18:28.278Z,141.90
2022-12-04T13:21:03.775Z,142.43
2022-12-04T13:24:08.464Z,140.53
2022-12-04T13:26:56.791Z,134.27
2022-12-04T13:29:33.289Z,131.63
2022-12-04T13:32:10.870Z,139.20
2022-12-04T13:34:40.910Z,141.20
2022-12-04T13:37:14.821Z,150.27
2022-12-04T13:39:44.719Z,155.73
2022-12-04T13:42:24.785Z,146.90
2022-12-04T13:44:57.321Z,153.97
2022-12-04T13:47:31.948Z,154.87
2022-12-04T13:50:20.805Z,144.13
2022-12-04T13:52:49.403Z,156.30
2022-12-04T13:55:38.053Z,151.37
2022-12-04T13:58:11.034Z,152.90
2022-12-04T14:00:43.841Z,145.40
2022-12-04T14:03:34.435Z,146.13
2022-12-04T14:06:08.043Z,143.97
2022-12-04T14:08:39.589Z,162.20
2022-12-04T14:11:14.222Z,160.07
2022-12-04T14:13:50.958Z,174.43
2022-12-04T14:16:20.154Z,158.03
2022-12-04T14:18:57.030Z,152.00
2022-12-04T14:21:24.755Z,138.07
2022-12-04T14:23:53.260Z,152.00
2022-12-04T14:27:03.197Z,130.87
2022-12-04T14:29:42.213Z,147.17
2022-12-04T14:32:16.124Z,137.40
2022-12-04T14:34:43.356Z,150.30
2022-12-04T14:37:21.297Z,155.63
2022-12-04T14:39:49.538Z,162.90
2022-12-04T14:42:23.423Z,155.27
2022-12-04T14:44:59.878Z,147.60
2022-12-04T14:47:50.677Z,161.33
2022-12-04T14:50:39.244Z,144.80
2022-12-04T14:53:28.895Z,136.63
2022-12-04T14:56:02.178Z,135.87
2022-12-04T14:58:36.629Z,136.67
2022-12-04T15:01:18.417Z,137.00
2022-12-04T15:03:48.926Z,140.10
2022-12-04T15:06:24.468Z,125.43
2022-12-04T15:09:16.362Z,137.30
2022-12-04T15:12:09.730Z,141.87
2022-12-04T15:14:59.352Z,132.00
2022-12-04T15:17:26.422Z,131.87
2022-12-04T15:19:53.615Z,139.93
2022-12-04T15:22:26.334Z,127.03
2022-12-04T15:24:55.103Z,141.60
2022-12-04T15:27:30.580Z,132.77
2022-12-04T15:30:02.278Z,138.07
2022-12-04T15:32:31.912Z,145.77
2022-12-04T15:35:03.074Z,133.33
2022-12-04T15:37:31.528Z,126.57
2022-12-04T15:40:00.071Z,134.63
2022-12-04T15:42:29.552Z,129.80
2022-12-04T15:45:03.608Z,126.40
2022-12-04T15:47:38.018Z,143.07
2022-12-04T15:50:11.399Z,137.83
2022-12-04T15:52:38.590Z,153.00
2022-12-04T15:55:08.228Z,132.10
2022-12-04T15:57:40.999Z,146.33
2022-12-04T16:00:22.736Z,120.20
2022-12-04T16:02:50.715Z,119.67
2022-12-04T16:05:21.007Z,132.50
2022-12-04T16:07:53.815Z,132.60
2022-12-04T16:10:23.669Z,143.30
2022-12-04T16:12:55.443Z,140.60
2022-12-04T16:15:24.639Z,152.37
2022-12-04T16:17:52.654Z,148.53
2022-12-04T16:20:20.699Z,159.47
2022-12-04T16:22:53.108Z,146.20
2022-12-04T16:25:20.323Z,152.17
2022-12-04T16:27:47.341Z,144.43
2022-12-04T16:30:14.753Z,144.97
2022-12-04T16:32:41.667Z,132.57
2022-12-04T16:35:15.643Z,127.97
2022-12-04T16:37:43.057Z,118.33
2022-12-04T16:40:14.665Z,123.90
2022-12-04T16:42:42.499Z,130.27
2022-12-04T16:45:18.731Z,121.87
2022-12-04T16:47:47.832Z,125.60
2022-12-04T16:50:15.278Z,126.60
2022-12-04T16:52:42.211Z,137.67
2022-12-04T16:55:31.286Z,128.27
2022-12-04T16:57:58.185Z,129.80
2022-12-04T17:00:25.518Z,131.23
2022-12-04T17:02:52.956Z,138.43
2022-12-04T17:05:23.333Z,127.57
2022-12-04T17:07:50.471Z,129.73
2022-12-04T17:10:23.589Z,139.47
2022-12-04T17:12:55.278Z,134.17
2022-12-04T17:15:22.615Z,146.03
2022-12-04T17:17:50.372Z,138.60
2022-12-04T17:20:20.273Z,118.90
2022-12-04T17:22:47.912Z,122.90
2022-12-04T17:25:16.663Z,108.43
2022-12-04T17:27:44.324Z,109.33
2022-12-04T17:30:12.544Z,109.47
2022-12-04T17:32:39.479Z,116.87
2022-12-04T17:35:08.015Z,124.93
2022-12-04T17:37:35.977Z,123.13
2022-12-04T17:40:04.153Z,114.43
2022-12-04T17:42:32.296Z,135.07
2022-12-04T17:44:59.961Z,115.60
2022-12-04T17:47:26.886Z,115.43
2022-12-04T17:49:54.041Z,120.33
2022-12-04T17:52:22.542Z,130.00
2022-12-04T17:54:50.526Z,114.70
2022-12-04T17:57:18.458Z,128.17
2022-12-04T17:59:45.772Z,117.63
2022-12-04T18:02:13.331Z,127.47
2022-12-04T18:04:41.540Z,124.20
2022-12-04T18:07:08.795Z,134.63
2022-12-04T18:09:36.549Z,122.67
2022-12-04T18:12:03.756Z,128.57
2022-12-04T18:14:32.291Z,125.97
2022-12-04T18:16:59.357Z,124.63
2022-12-04T18:19:29.105Z,139.10
2022-12-04T18:21:56.919Z,131.40
2022-12-04T18:24:25.213Z,116.47
2022-12-04T18:26:52.862Z,134.63
2022-12-04T18:29:22.998Z,129.80
2022-12-04T18:31:51.178Z,118.13
2022-12-04T18:34:19.471Z,129.17
2022-12-04T18:36:47.015Z,123.73
2022-12-04T18:39:18.467Z,115.93
2022-12-04T18:41:46.215Z,134.27
2022-12-04T18:44:14.007Z,119.43
2022-12-04T18:46:42.073Z,123.03
2022-12-04T18:49:10.508Z,122.00
2022-12-04T18:51:49.288Z,151.00
2022-12-04T18:54:21.232Z,130.03
2022-12-04T18:56:48.228Z,129.27
2022-12-04T18:59:20.659Z,131.37
2022-12-04T19:01:50.239Z,119.90
2022-12-04T19:04:19.579Z,120.73
2022-12-04T19:06:52.387Z,128.67
2022-12-04T19:09:40.846Z,124.17
2022-12-04T19:12:08.634Z,131.83
2022-12-04T19:14:35.933Z,120.33
2022-12-04T19:17:02.870Z,119.13
2022-12-04T19:19:31.875Z,113.10
2022-12-04T19:21:59.213Z,116.43
2022-12-04T19:24:26.448Z,120.93
2022-12-04T19:26:54.376Z,113.13
2022-12-04T19:29:21.587Z,107.20
2022-12-04T19:31:48.643Z,115.20
2022-12-04T19:34:16.297Z,119.90
2022-12-04T19:36:45.380Z,120.33
2022-12-04T19:39:12.739Z,113.10
2022-12-04T19:41:41.367Z,131.83
2022-12-04T19:44:40.154Z,118.60
2022-12-04T19:46:56.692Z,113.23
2022-12-04T19:49:23.904Z,112.93
2022-12-04T19:51:50.775Z,104.43
2022-12-04T19:54:18.496Z,107.60
2022-12-04T19:56:51.019Z,120.23
2022-12-04T19:59:20.347Z,111.47
2022-12-04T20:01:47.559Z,118.83
2022-12-04T20:04:15.048Z,108.77
2022-12-04T20:06:46.499Z,101.50
2022-12-04T20:09:19.215Z,104.97
2022-12-04T20:11:46.279Z,107.43
2022-12-04T20:14:14.169Z,120.07
2022-12-04T20:16:42.106Z,93.07
2022-12-04T20:19:15.050Z,94.77
2022-12-04T20:21:42.988Z,106.73
2022-12-04T20:24:12.802Z,96.87
2022-12-04T20:26:41.688Z,85.93
2022-12-04T20:29:13.201Z,101.93
2022-12-04T20:31:42.709Z,99.53
2022-12-04T20:34:18.087Z,100.13
2022-12-04T20:36:47.186Z,91.57
2022-12-04T20:39:15.593Z,96.17
2022-12-04T20:41:42.669Z,91.70
2022-12-04T20:44:13.807Z,89.40
2022-12-04T20:46:42.660Z,92.20
2022-12-04T20:49:21.247Z,94.50
2022-12-04T20:51:49.834Z,89.33
2022-12-04T20:54:19.171Z,86.83
2022-12-04T20:56:49.016Z,92.50
2022-12-04T20:59:18.344Z,87.27
2022-12-04T21:01:45.671Z,91.70
2022-12-04T21:04:13.404Z,98.97
2022-12-04T21:06:41.829Z,90.87
2022-12-04T21:09:21.582Z,97.90
2022-12-04T21:11:54.291Z,90.73
2022-12-04T21:14:50.855Z,92.57
2022-12-04T21:17:19.496Z,94.47
2022-12-04T21:19:49.937Z,85.20
2022-12-04T21:22:18.541Z,104.23
2022-12-04T21:24:46.022Z,91.83
2022-12-04T21:27:18.927Z,94.90
2022-12-04T21:29:48.363Z,86.10
2022-12-04T21:32:19.091Z,81.77
2022-12-04T21:34:46.263Z,90.30
2022-12-04T21:37:13.330Z,86.70
2022-12-04T21:39:41.922Z,81.07
2022-12-04T21:42:27.643Z,82.30
2022-12-04T21:44:54.945Z,81.43
2022-12-04T21:47:21.964Z,83.07
2022-12-04T21:49:49.267Z,90.23
2022-12-04T21:52:17.460Z,87.10
2022-12-04T21:54:44.897Z,83.63
2022-12-04T21:57:11.833Z,92.67
2022-12-04T21:59:39.066Z,92.27
2022-12-04T22:02:06.159Z,84.13
2022-12-04T22:04:33.609Z,87.40
2022-12-04T22:07:00.477Z,102.40
2022-12-04T22:09:27.783Z,98.07
2022-12-04T22:11:54.669Z,90.57
2022-12-04T22:14:21.965Z,105.60
2022-12-04T22:16:53.045Z,88.73
2022-12-04T22:19:20.908Z,90.07
2022-12-04T22:21:48.155Z,93.33
2022-12-04T22:24:15.423Z,92.63
2022-12-04T22:26:42.403Z,85.57
2022-12-04T22:29:34.299Z,92.93
2022-12-04T22:31:56.469Z,86.43
2022-12-04T22:34:23.713Z,93.13
2022-12-04T22:36:50.910Z,90.50
2022-12-04T22:39:18.047Z,94.10
2022-12-04T22:41:45.137Z,85.13
2022-12-04T22:44:12.413Z,89.53
2022-12-04T22:46:39.284Z,108.87
2022-12-04T22:49:06.536Z,106.70
2022-12-04T22:51:33.422Z,99.30
2022-12-04T22:54:00.667Z,90.93
2022-12-04T22:56:30.698Z,90.20
2022-12-04T22:58:59.436Z,94.03
2022-12-04T23:01:32.080Z,89.70
2022-12-04T23:04:00.176Z,91.93
2022-12-04T23:06:29.952Z,97.70
2022-12-04T23:08:59.851Z,94.93
2022-12-04T23:11:27.931Z,104.17
2022-12-04T23:14:00.069Z,91.13
2022-12-04T23:16:28.608Z,98.87
2022-12-04T23:18:56.168Z,97.23
2022-12-04T23:21:24.046Z,107.93
2022-12-04T23:23:53.049Z,98.73
2022-12-04T23:26:22.675Z,96.50
2022-12-04T23:28:49.999Z,103.23
2022-12-04T23:31:17.148Z,94.13
2022-12-04T23:33:44.539Z,93.33
2022-12-04T23:36:12.631Z,91.30
2022-12-04T23:38:41.647Z,83.70
2022-12-04T23:41:14.000Z,86.63
2022-12-04T23:43:41.499Z,86.43
2022-12-04T23:46:11.487Z,80.60
2022-12-04T23:48:40.361Z,82.90
2022-12-04T23:51:08.756Z,83.33
2022-12-04T23:53:36.642Z,82.97
2022-12-04T23:56:08.046Z,88.07
2022-12-04T23:58:36.157Z,82.73
